sensor_id;sensor_type;location;lat;lon;timestamp;temperature;humidity
79187;SHT31;68762;51.980;5.646;2023-06-04T00:01:10;18.9;41.4
79187;SHT31;68762;51.980;5.646;2023-06-04T00:03:38;18.9;41.5
79187;SHT31;68762;51.980;5.646;2023-06-04T00:06:07;18.8;41.3
79187;SHT31;68762;51.980;5.646;2023-06-04T00:08:35;18.8;41.6
79187;SHT31;68762;51.980;5.646;2023-06-04T00:11:04;18.7;41.6
79187;SHT31;68762;51.980;5.646;2023-06-04T00:13:33;18.7;41.7
79187;SHT31;68762;51.980;5.646;2023-06-04T00:16:01;18.6;41.8
79187;SHT31;68762;51.980;5.646;2023-06-04T00:18:30;18.6;41.8
79187;SHT31;68762;51.980;5.646;2023-06-04T00:20:59;18.5;41.9
79187;SHT31;68762;51.980;5.646;2023-06-04T00:23:27;18.4;41.8
79187;SHT31;68762;51.980;5.646;2023-06-04T00:25:56;18.4;42.0
79187;SHT31;68762;51.980;5.646;2023-06-04T00:28:25;18.3;42.0
79187;SHT31;68762;51.980;5.646;2023-06-04T00:30:53;18.3;42.2
79187;SHT31;68762;51.980;5.646;2023-06-04T00:33:22;18.2;42.4
79187;SHT31;68762;51.980;5.646;2023-06-04T00:35:50;18.2;42.3
79187;SHT31;68762;51.980;5.646;2023-06-04T00:38:21;18.1;42.5
79187;SHT31;68762;51.980;5.646;2023-06-04T00:40:49;18.1;42.4
79187;SHT31;68762;51.980;5.646;2023-06-04T00:43:18;18.0;42.5
79187;SHT31;68762;51.980;5.646;2023-06-04T00:45:46;18.0;42.5
79187;SHT31;68762;51.980;5.646;2023-06-04T00:48:17;17.9;42.7
79187;SHT31;68762;51.980;5.646;2023-06-04T00:50:47;17.9;42.8
79187;SHT31;68762;51.980;5.646;2023-06-04T00:53:16;17.8;42.7
79187;SHT31;68762;51.980;5.646;2023-06-04T00:55:45;17.8;42.9
79187;SHT31;68762;51.980;5.646;2023-06-04T00:58:14;17.7;43.0
79187;SHT31;68762;51.980;5.646;2023-06-04T01:00:43;17.7;43.1
79187;SHT31;68762;51.980;5.646;2023-06-04T01:03:14;17.7;43.1
79187;SHT31;68762;51.980;5.646;2023-06-04T01:05:51;17.6;43.3
79187;SHT31;68762;51.980;5.646;2023-06-04T01:08:23;17.6;43.0
79187;SHT31;68762;51.980;5.646;2023-06-04T01:10:53;17.5;43.2
79187;SHT31;68762;51.980;5.646;2023-06-04T01:13:24;17.5;43.3
79187;SHT31;68762;51.980;5.646;2023-06-04T01:15:53;17.5;43.8
79187;SHT31;68762;51.980;5.646;2023-06-04T01:18:27;17.4;43.4
79187;SHT31;68762;51.980;5.646;2023-06-04T01:20:58;17.4;43.6
79187;SHT31;68762;51.980;5.646;2023-06-04T01:23:33;17.4;43.4
79187;SHT31;68762;51.980;5.646;2023-06-04T01:26:04;17.3;43.5
79187;SHT31;68762;51.980;5.646;2023-06-04T01:28:34;17.3;43.5
79187;SHT31;68762;51.980;5.646;2023-06-04T01:31:03;17.2;43.5
79187;SHT31;68762;51.980;5.646;2023-06-04T01:33:34;17.2;43.6
79187;SHT31;68762;51.980;5.646;2023-06-04T01:36:03;17.2;43.7
79187;SHT31;68762;51.980;5.646;2023-06-04T01:38:34;17.1;43.7
79187;SHT31;68762;51.980;5.646;2023-06-04T01:41:03;17.1;43.7
79187;SHT31;68762;51.980;5.646;2023-06-04T01:43:31;17.1;43.9
79187;SHT31;68762;51.980;5.646;2023-06-04T01:46:02;17.0;44.0
79187;SHT31;68762;51.980;5.646;2023-06-04T01:48:32;17.0;44.0
79187;SHT31;68762;51.980;5.646;2023-06-04T01:51:02;17.0;43.9
79187;SHT31;68762;51.980;5.646;2023-06-04T01:53:31;17.0;44.0
79187;SHT31;68762;51.980;5.646;2023-06-04T01:56:00;16.9;44.3
79187;SHT31;68762;51.980;5.646;2023-06-04T01:58:29;16.9;44.2
79187;SHT31;68762;51.980;5.646;2023-06-04T02:00:58;16.9;44.0
79187;SHT31;68762;51.980;5.646;2023-06-04T02:03:29;16.8;44.6
79187;SHT31;68762;51.980;5.646;2023-06-04T02:06:03;16.8;44.9
79187;SHT31;68762;51.980;5.646;2023-06-04T02:08:34;16.8;44.9
79187;SHT31;68762;51.980;5.646;2023-06-04T02:11:02;16.7;44.5
79187;SHT31;68762;51.980;5.646;2023-06-04T02:13:31;16.7;44.5
79187;SHT31;68762;51.980;5.646;2023-06-04T02:15:59;16.7;44.8
79187;SHT31;68762;51.980;5.646;2023-06-04T02:18:30;16.7;44.7
79187;SHT31;68762;51.980;5.646;2023-06-04T02:20:58;16.6;44.4
79187;SHT31;68762;51.980;5.646;2023-06-04T02:23:27;16.6;44.5
79187;SHT31;68762;51.980;5.646;2023-06-04T02:25:55;16.6;44.5
79187;SHT31;68762;51.980;5.646;2023-06-04T02:28:24;16.6;44.7
79187;SHT31;68762;51.980;5.646;2023-06-04T02:30:53;16.5;44.5
79187;SHT31;68762;51.980;5.646;2023-06-04T02:33:21;16.5;44.5
79187;SHT31;68762;51.980;5.646;2023-06-04T02:35:50;16.5;44.8
79187;SHT31;68762;51.980;5.646;2023-06-04T02:38:19;16.5;45.0
79187;SHT31;68762;51.980;5.646;2023-06-04T02:40:47;16.4;45.0
79187;SHT31;68762;51.980;5.646;2023-06-04T02:43:16;16.4;45.0
79187;SHT31;68762;51.980;5.646;2023-06-04T02:45:44;16.4;44.9
79187;SHT31;68762;51.980;5.646;2023-06-04T02:48:13;16.4;44.7
79187;SHT31;68762;51.980;5.646;2023-06-04T02:50:42;16.4;44.9
79187;SHT31;68762;51.980;5.646;2023-06-04T02:53:10;16.3;45.0
79187;SHT31;68762;51.980;5.646;2023-06-04T02:55:39;16.3;44.7
79187;SHT31;68762;51.980;5.646;2023-06-04T02:58:08;16.3;44.9
79187;SHT31;68762;51.980;5.646;2023-06-04T03:00:37;16.3;44.8
79187;SHT31;68762;51.980;5.646;2023-06-04T03:03:06;16.3;45.5
79187;SHT31;68762;51.980;5.646;2023-06-04T03:05:35;16.3;45.2
79187;SHT31;68762;51.980;5.646;2023-06-04T03:08:06;16.2;45.2
79187;SHT31;68762;51.980;5.646;2023-06-04T03:10:35;16.2;44.8
79187;SHT31;68762;51.980;5.646;2023-06-04T03:13:04;16.1;45.0
79187;SHT31;68762;51.980;5.646;2023-06-04T03:15:32;16.1;45.5
79187;SHT31;68762;51.980;5.646;2023-06-04T03:18:05;16.1;45.2
79187;SHT31;68762;51.980;5.646;2023-06-04T03:20:34;16.0;45.9
79187;SHT31;68762;51.980;5.646;2023-06-04T03:23:05;16.0;45.9
79187;SHT31;68762;51.980;5.646;2023-06-04T03:25:34;15.9;45.7
79187;SHT31;68762;51.980;5.646;2023-06-04T03:28:03;15.9;46.0
79187;SHT31;68762;51.980;5.646;2023-06-04T03:30:31;15.9;46.0
79187;SHT31;68762;51.980;5.646;2023-06-04T03:33:00;15.9;46.0
79187;SHT31;68762;51.980;5.646;2023-06-04T03:35:29;15.8;46.2
79187;SHT31;68762;51.980;5.646;2023-06-04T03:37:57;15.8;46.2
79187;SHT31;68762;51.980;5.646;2023-06-04T03:40:26;15.8;46.6
79187;SHT31;68762;51.980;5.646;2023-06-04T03:42:54;15.8;46.6
79187;SHT31;68762;51.980;5.646;2023-06-04T03:45:25;15.8;46.3
79187;SHT31;68762;51.980;5.646;2023-06-04T03:47:54;15.7;46.2
79187;SHT31;68762;51.980;5.646;2023-06-04T03:50:22;15.7;46.8
79187;SHT31;68762;51.980;5.646;2023-06-04T03:52:53;15.7;47.6
79187;SHT31;68762;51.980;5.646;2023-06-04T03:55:22;15.7;46.9
79187;SHT31;68762;51.980;5.646;2023-06-04T03:57:50;15.6;47.3
79187;SHT31;68762;51.980;5.646;2023-06-04T04:00:19;15.6;47.4
79187;SHT31;68762;51.980;5.646;2023-06-04T04:02:48;15.6;47.0
79187;SHT31;68762;51.980;5.646;2023-06-04T04:05:17;15.6;47.2
79187;SHT31;68762;51.980;5.646;2023-06-04T04:07:45;15.6;47.1
79187;SHT31;68762;51.980;5.646;2023-06-04T04:10:14;15.5;46.9
79187;SHT31;68762;51.980;5.646;2023-06-04T04:12:43;15.5;47.5
79187;SHT31;68762;51.980;5.646;2023-06-04T04:15:14;15.4;47.4
79187;SHT31;68762;51.980;5.646;2023-06-04T04:17:42;15.4;47.6
79187;SHT31;68762;51.980;5.646;2023-06-04T04:20:11;15.3;48.0
79187;SHT31;68762;51.980;5.646;2023-06-04T04:22:42;15.3;48.2
79187;SHT31;68762;51.980;5.646;2023-06-04T04:25:10;15.3;48.6
79187;SHT31;68762;51.980;5.646;2023-06-04T04:27:39;15.2;48.8
79187;SHT31;68762;51.980;5.646;2023-06-04T04:30:08;15.2;48.5
79187;SHT31;68762;51.980;5.646;2023-06-04T04:32:39;15.1;48.7
79187;SHT31;68762;51.980;5.646;2023-06-04T04:35:14;15.1;49.3
79187;SHT31;68762;51.980;5.646;2023-06-04T04:37:44;15.1;49.5
79187;SHT31;68762;51.980;5.646;2023-06-04T04:40:13;15.1;49.6
79187;SHT31;68762;51.980;5.646;2023-06-04T04:42:42;15.0;49.5
79187;SHT31;68762;51.980;5.646;2023-06-04T04:45:11;15.0;50.3
79187;SHT31;68762;51.980;5.646;2023-06-04T04:47:39;15.0;50.1
79187;SHT31;68762;51.980;5.646;2023-06-04T04:50:08;15.0;50.8
79187;SHT31;68762;51.980;5.646;2023-06-04T04:52:37;15.0;51.3
79187;SHT31;68762;51.980;5.646;2023-06-04T04:55:06;15.0;51.2
79187;SHT31;68762;51.980;5.646;2023-06-04T04:57:35;15.0;51.7
79187;SHT31;68762;51.980;5.646;2023-06-04T05:00:04;15.0;52.0
79187;SHT31;68762;51.980;5.646;2023-06-04T05:02:35;15.0;52.2
79187;SHT31;68762;51.980;5.646;2023-06-04T05:05:05;15.0;52.1
79187;SHT31;68762;51.980;5.646;2023-06-04T05:07:33;15.0;52.2
79187;SHT31;68762;51.980;5.646;2023-06-04T05:10:02;15.0;52.3
79187;SHT31;68762;51.980;5.646;2023-06-04T05:12:31;15.1;51.8
79187;SHT31;68762;51.980;5.646;2023-06-04T05:14:59;15.1;52.5
79187;SHT31;68762;51.980;5.646;2023-06-04T05:17:29;15.1;52.0
79187;SHT31;68762;51.980;5.646;2023-06-04T05:19:58;15.1;52.2
79187;SHT31;68762;51.980;5.646;2023-06-04T05:22:32;15.2;52.2
79187;SHT31;68762;51.980;5.646;2023-06-04T05:25:02;15.2;52.4
79187;SHT31;68762;51.980;5.646;2023-06-04T05:27:32;15.2;52.1
79187;SHT31;68762;51.980;5.646;2023-06-04T05:30:03;15.2;52.1
79187;SHT31;68762;51.980;5.646;2023-06-04T05:32:35;15.3;52.3
79187;SHT31;68762;51.980;5.646;2023-06-04T05:35:07;15.3;52.4
79187;SHT31;68762;51.980;5.646;2023-06-04T05:37:37;15.3;52.7
79187;SHT31;68762;51.980;5.646;2023-06-04T05:40:07;15.4;52.8
79187;SHT31;68762;51.980;5.646;2023-06-04T05:42:37;15.4;53.0
79187;SHT31;68762;51.980;5.646;2023-06-04T05:45:06;15.4;52.8
79187;SHT31;68762;51.980;5.646;2023-06-04T05:47:36;15.5;51.7
79187;SHT31;68762;51.980;5.646;2023-06-04T05:50:06;15.5;52.5
79187;SHT31;68762;51.980;5.646;2023-06-04T05:52:34;15.6;53.3
79187;SHT31;68762;51.980;5.646;2023-06-04T05:55:04;15.6;53.2
79187;SHT31;68762;51.980;5.646;2023-06-04T05:57:34;15.6;53.3
79187;SHT31;68762;51.980;5.646;2023-06-04T06:00:03;15.7;52.6
79187;SHT31;68762;51.980;5.646;2023-06-04T06:02:35;15.8;52.6
79187;SHT31;68762;51.980;5.646;2023-06-04T06:05:06;15.8;51.5
79187;SHT31;68762;51.980;5.646;2023-06-04T06:07:35;15.9;51.9
79187;SHT31;68762;51.980;5.646;2023-06-04T06:10:04;15.9;51.7
79187;SHT31;68762;51.980;5.646;2023-06-04T06:12:33;16.0;52.3
79187;SHT31;68762;51.980;5.646;2023-06-04T06:15:02;16.0;52.2
79187;SHT31;68762;51.980;5.646;2023-06-04T06:17:30;16.1;51.3
79187;SHT31;68762;51.980;5.646;2023-06-04T06:19:59;16.2;51.7
79187;SHT31;68762;51.980;5.646;2023-06-04T06:22:28;16.2;51.4
79187;SHT31;68762;51.980;5.646;2023-06-04T06:24:56;16.3;50.7
79187;SHT31;68762;51.980;5.646;2023-06-04T06:27:25;16.4;50.1
79187;SHT31;68762;51.980;5.646;2023-06-04T06:29:55;16.4;50.6
79187;SHT31;68762;51.980;5.646;2023-06-04T06:32:24;16.5;51.2
79187;SHT31;68762;51.980;5.646;2023-06-04T06:34:53;16.6;50.7
79187;SHT31;68762;51.980;5.646;2023-06-04T06:37:22;16.6;51.1
79187;SHT31;68762;51.980;5.646;2023-06-04T06:39:50;16.7;49.9
79187;SHT31;68762;51.980;5.646;2023-06-04T06:42:19;16.8;49.4
79187;SHT31;68762;51.980;5.646;2023-06-04T06:44:47;16.9;49.3
79187;SHT31;68762;51.980;5.646;2023-06-04T06:47:17;17.0;50.2
79187;SHT31;68762;51.980;5.646;2023-06-04T06:49:45;17.1;49.7
79187;SHT31;68762;51.980;5.646;2023-06-04T06:52:14;17.2;49.2
79187;SHT31;68762;51.980;5.646;2023-06-04T06:54:46;17.2;48.6
79187;SHT31;68762;51.980;5.646;2023-06-04T06:57:15;17.3;47.9
79187;SHT31;68762;51.980;5.646;2023-06-04T06:59:43;17.4;48.9
79187;SHT31;68762;51.980;5.646;2023-06-04T07:02:12;17.5;47.8
79187;SHT31;68762;51.980;5.646;2023-06-04T07:04:40;17.6;48.9
79187;SHT31;68762;51.980;5.646;2023-06-04T07:07:09;17.7;48.1
79187;SHT31;68762;51.980;5.646;2023-06-04T07:09:37;17.8;47.7
79187;SHT31;68762;51.980;5.646;2023-06-04T07:12:06;18.0;47.7
79187;SHT31;68762;51.980;5.646;2023-06-04T07:14:35;18.1;46.8
79187;SHT31;68762;51.980;5.646;2023-06-04T07:17:05;18.2;48.5
79187;SHT31;68762;51.980;5.646;2023-06-04T07:19:34;18.3;46.3
79187;SHT31;68762;51.980;5.646;2023-06-04T07:22:05;18.4;45.6
79187;SHT31;68762;51.980;5.646;2023-06-04T07:24:33;18.6;46.3
79187;SHT31;68762;51.980;5.646;2023-06-04T07:27:09;18.7;46.5
79187;SHT31;68762;51.980;5.646;2023-06-04T07:29:35;18.8;45.4
79187;SHT31;68762;51.980;5.646;2023-06-04T07:32:04;18.9;47.2
79187;SHT31;68762;51.980;5.646;2023-06-04T07:34:32;19.0;47.2
79187;SHT31;68762;51.980;5.646;2023-06-04T07:37:03;19.2;46.0
79187;SHT31;68762;51.980;5.646;2023-06-04T07:39:32;19.3;44.5
79187;SHT31;68762;51.980;5.646;2023-06-04T07:42:00;19.4;47.0
79187;SHT31;68762;51.980;5.646;2023-06-04T07:44:29;19.5;44.8
79187;SHT31;68762;51.980;5.646;2023-06-04T07:46:57;19.6;43.2
79187;SHT31;68762;51.980;5.646;2023-06-04T07:49:28;19.8;42.8
79187;SHT31;68762;51.980;5.646;2023-06-04T07:51:56;19.9;42.7
79187;SHT31;68762;51.980;5.646;2023-06-04T07:54:26;20.0;44.3
79187;SHT31;68762;51.980;5.646;2023-06-04T07:56:55;20.1;43.3
79187;SHT31;68762;51.980;5.646;2023-06-04T07:59:26;20.3;44.5
79187;SHT31;68762;51.980;5.646;2023-06-04T08:01:57;20.4;43.3
79187;SHT31;68762;51.980;5.646;2023-06-04T08:04:26;20.5;42.6
79187;SHT31;68762;51.980;5.646;2023-06-04T08:06:56;20.6;41.4
79187;SHT31;68762;51.980;5.646;2023-06-04T08:09:25;20.8;41.9
79187;SHT31;68762;51.980;5.646;2023-06-04T08:11:54;20.9;40.7
79187;SHT31;68762;51.980;5.646;2023-06-04T08:14:22;21.0;41.6
79187;SHT31;68762;51.980;5.646;2023-06-04T08:16:53;21.1;41.2
79187;SHT31;68762;51.980;5.646;2023-06-04T08:19:22;21.2;40.9
79187;SHT31;68762;51.980;5.646;2023-06-04T08:21:51;21.3;38.9
79187;SHT31;68762;51.980;5.646;2023-06-04T08:24:19;21.5;40.9
79187;SHT31;68762;51.980;5.646;2023-06-04T08:26:48;21.6;38.4
79187;SHT31;68762;51.980;5.646;2023-06-04T08:29:17;21.7;38.7
79187;SHT31;68762;51.980;5.646;2023-06-04T08:31:46;21.8;38.0
79187;SHT31;68762;51.980;5.646;2023-06-04T08:34:15;21.9;37.7
79187;SHT31;68762;51.980;5.646;2023-06-04T08:36:45;22.0;38.8
79187;SHT31;68762;51.980;5.646;2023-06-04T08:39:14;22.1;38.5
79187;SHT31;68762;51.980;5.646;2023-06-04T08:41:48;22.2;36.5
79187;SHT31;68762;51.980;5.646;2023-06-04T08:44:19;22.3;36.7
79187;SHT31;68762;51.980;5.646;2023-06-04T08:46:51;22.4;36.0
79187;SHT31;68762;51.980;5.646;2023-06-04T08:49:22;22.5;36.4
79187;SHT31;68762;51.980;5.646;2023-06-04T08:51:52;22.6;35.7
79187;SHT31;68762;51.980;5.646;2023-06-04T08:54:21;22.8;35.2
79187;SHT31;68762;51.980;5.646;2023-06-04T08:56:49;22.9;34.7
79187;SHT31;68762;51.980;5.646;2023-06-04T08:59:19;23.0;34.7
79187;SHT31;68762;51.980;5.646;2023-06-04T09:01:50;23.1;36.3
79187;SHT31;68762;51.980;5.646;2023-06-04T09:04:19;23.2;35.1
79187;SHT31;68762;51.980;5.646;2023-06-04T09:06:49;23.3;35.5
79187;SHT31;68762;51.980;5.646;2023-06-04T09:09:18;23.4;34.3
79187;SHT31;68762;51.980;5.646;2023-06-04T09:11:51;23.4;33.8
79187;SHT31;68762;51.980;5.646;2023-06-04T09:14:20;23.6;32.0
79187;SHT31;68762;51.980;5.646;2023-06-04T09:16:51;23.7;33.3
79187;SHT31;68762;51.980;5.646;2023-06-04T09:19:21;23.8;33.3
79187;SHT31;68762;51.980;5.646;2023-06-04T09:21:52;23.9;34.0
79187;SHT31;68762;51.980;5.646;2023-06-04T09:24:23;24.0;33.1
79187;SHT31;68762;51.980;5.646;2023-06-04T09:26:52;24.1;32.3
79187;SHT31;68762;51.980;5.646;2023-06-04T09:29:21;24.2;34.6
79187;SHT31;68762;51.980;5.646;2023-06-04T09:31:59;24.3;33.3
79187;SHT31;68762;51.980;5.646;2023-06-04T09:34:32;24.4;32.7
79187;SHT31;68762;51.980;5.646;2023-06-04T09:37:01;24.4;32.1
79187;SHT31;68762;51.980;5.646;2023-06-04T09:39:32;24.5;32.1
79187;SHT31;68762;51.980;5.646;2023-06-04T09:42:02;24.6;31.4
79187;SHT31;68762;51.980;5.646;2023-06-04T09:44:44;24.7;32.3
79187;SHT31;68762;51.980;5.646;2023-06-04T09:47:14;24.9;31.8
79187;SHT31;68762;51.980;5.646;2023-06-04T09:49:43;24.9;32.0
79187;SHT31;68762;51.980;5.646;2023-06-04T09:52:12;25.0;31.8
79187;SHT31;68762;51.980;5.646;2023-06-04T09:54:42;25.1;30.5
79187;SHT31;68762;51.980;5.646;2023-06-04T09:57:16;25.2;31.4
79187;SHT31;68762;51.980;5.646;2023-06-04T09:59:48;25.3;31.2
79187;SHT31;68762;51.980;5.646;2023-06-04T10:02:20;25.3;30.8
79187;SHT31;68762;51.980;5.646;2023-06-04T10:04:53;25.4;30.9
79187;SHT31;68762;51.980;5.646;2023-06-04T10:07:24;25.5;30.1
79187;SHT31;68762;51.980;5.646;2023-06-04T10:09:54;25.6;30.9
79187;SHT31;68762;51.980;5.646;2023-06-04T10:12:27;25.6;28.5
79187;SHT31;68762;51.980;5.646;2023-06-04T10:15:02;25.7;27.5
79187;SHT31;68762;51.980;5.646;2023-06-04T10:17:35;25.8;28.9
79187;SHT31;68762;51.980;5.646;2023-06-04T10:20:04;25.8;30.1
79187;SHT31;68762;51.980;5.646;2023-06-04T10:22:35;25.8;30.2
79187;SHT31;68762;51.980;5.646;2023-06-04T10:25:04;25.9;28.5
79187;SHT31;68762;51.980;5.646;2023-06-04T10:27:33;26.0;29.3
79187;SHT31;68762;51.980;5.646;2023-06-04T10:30:04;26.0;30.0
79187;SHT31;68762;51.980;5.646;2023-06-04T10:32:34;26.1;29.1
79187;SHT31;68762;51.980;5.646;2023-06-04T10:35:05;26.2;29.0
79187;SHT31;68762;51.980;5.646;2023-06-04T10:37:34;26.2;27.3
79187;SHT31;68762;51.980;5.646;2023-06-04T10:40:06;26.3;28.0
79187;SHT31;68762;51.980;5.646;2023-06-04T10:42:41;26.4;28.5
79187;SHT31;68762;51.980;5.646;2023-06-04T10:45:11;26.4;27.9
79187;SHT31;68762;51.980;5.646;2023-06-04T10:47:39;26.5;29.6
79187;SHT31;68762;51.980;5.646;2023-06-04T10:50:11;26.5;29.1
79187;SHT31;68762;51.980;5.646;2023-06-04T10:52:55;26.6;28.4
79187;SHT31;68762;51.980;5.646;2023-06-04T10:55:25;26.6;25.5
79187;SHT31;68762;51.980;5.646;2023-06-04T10:57:55;26.7;26.2
79187;SHT31;68762;51.980;5.646;2023-06-04T11:00:37;26.7;26.5
79187;SHT31;68762;51.980;5.646;2023-06-04T11:03:09;26.7;28.9
79187;SHT31;68762;51.980;5.646;2023-06-04T11:05:40;26.8;27.3
79187;SHT31;68762;51.980;5.646;2023-06-04T11:08:10;26.8;27.7
79187;SHT31;68762;51.980;5.646;2023-06-04T11:10:42;26.8;28.3
79187;SHT31;68762;51.980;5.646;2023-06-04T11:13:12;26.9;28.1
79187;SHT31;68762;51.980;5.646;2023-06-04T11:15:43;26.9;26.1
79187;SHT31;68762;51.980;5.646;2023-06-04T11:18:18;27.0;27.9
79187;SHT31;68762;51.980;5.646;2023-06-04T11:20:59;27.0;28.6
79187;SHT31;68762;51.980;5.646;2023-06-04T11:23:23;27.0;28.3
79187;SHT31;68762;51.980;5.646;2023-06-04T11:25:52;27.1;28.7
79187;SHT31;68762;51.980;5.646;2023-06-04T11:28:21;27.1;27.7
79187;SHT31;68762;51.980;5.646;2023-06-04T11:31:00;27.2;27.6
79187;SHT31;68762;51.980;5.646;2023-06-04T11:33:45;27.3;29.0
79187;SHT31;68762;51.980;5.646;2023-06-04T11:36:23;27.3;26.2
79187;SHT31;68762;51.980;5.646;2023-06-04T11:38:56;27.4;25.9
79187;SHT31;68762;51.980;5.646;2023-06-04T11:41:27;27.4;26.5
79187;SHT31;68762;51.980;5.646;2023-06-04T11:44:01;27.5;28.3
79187;SHT31;68762;51.980;5.646;2023-06-04T11:46:30;27.5;29.9
79187;SHT31;68762;51.980;5.646;2023-06-04T11:48:59;27.6;30.5
79187;SHT31;68762;51.980;5.646;2023-06-04T11:51:28;27.6;27.8
79187;SHT31;68762;51.980;5.646;2023-06-04T11:53:59;27.7;28.5
79187;SHT31;68762;51.980;5.646;2023-06-04T11:56:28;27.7;27.2
79187;SHT31;68762;51.980;5.646;2023-06-04T11:58:57;27.8;29.0
79187;SHT31;68762;51.980;5.646;2023-06-04T12:01:26;27.8;28.5
79187;SHT31;68762;51.980;5.646;2023-06-04T12:03:57;27.9;28.9
79187;SHT31;68762;51.980;5.646;2023-06-04T12:06:25;27.9;28.0
79187;SHT31;68762;51.980;5.646;2023-06-04T12:08:55;28.0;28.0
79187;SHT31;68762;51.980;5.646;2023-06-04T12:11:27;28.0;27.9
79187;SHT31;68762;51.980;5.646;2023-06-04T12:13:59;28.0;28.5
79187;SHT31;68762;51.980;5.646;2023-06-04T12:16:28;28.1;28.0
79187;SHT31;68762;51.980;5.646;2023-06-04T12:19:08;28.1;28.9
79187;SHT31;68762;51.980;5.646;2023-06-04T12:21:38;28.1;28.9
79187;SHT31;68762;51.980;5.646;2023-06-04T12:24:11;28.2;29.2
79187;SHT31;68762;51.980;5.646;2023-06-04T12:26:41;28.2;29.8
79187;SHT31;68762;51.980;5.646;2023-06-04T12:29:12;28.3;29.4
79187;SHT31;68762;51.980;5.646;2023-06-04T12:31:42;28.3;28.9
79187;SHT31;68762;51.980;5.646;2023-06-04T12:34:13;28.3;32.2
79187;SHT31;68762;51.980;5.646;2023-06-04T12:36:44;28.4;30.8
79187;SHT31;68762;51.980;5.646;2023-06-04T12:39:12;28.4;26.8
79187;SHT31;68762;51.980;5.646;2023-06-04T12:41:45;28.4;27.9
79187;SHT31;68762;51.980;5.646;2023-06-04T12:44:15;28.5;28.9
79187;SHT31;68762;51.980;5.646;2023-06-04T12:46:44;28.5;33.9
79187;SHT31;68762;51.980;5.646;2023-06-04T12:49:13;28.5;26.1
79187;SHT31;68762;51.980;5.646;2023-06-04T12:51:43;28.5;25.6
79187;SHT31;68762;51.980;5.646;2023-06-04T12:54:11;28.5;28.5
79187;SHT31;68762;51.980;5.646;2023-06-04T12:56:41;28.5;27.5
79187;SHT31;68762;51.980;5.646;2023-06-04T12:59:09;28.5;28.9
79187;SHT31;68762;51.980;5.646;2023-06-04T13:01:38;28.5;28.5
79187;SHT31;68762;51.980;5.646;2023-06-04T13:04:07;28.5;28.9
79187;SHT31;68762;51.980;5.646;2023-06-04T13:06:36;28.6;28.8
79187;SHT31;68762;51.980;5.646;2023-06-04T13:09:07;28.6;25.7
79187;SHT31;68762;51.980;5.646;2023-06-04T13:11:40;28.6;27.4
79187;SHT31;68762;51.980;5.646;2023-06-04T13:14:09;28.7;28.2
79187;SHT31;68762;51.980;5.646;2023-06-04T13:16:39;28.7;28.5
79187;SHT31;68762;51.980;5.646;2023-06-04T13:19:08;28.7;27.4
79187;SHT31;68762;51.980;5.646;2023-06-04T13:21:39;28.8;29.1
79187;SHT31;68762;51.980;5.646;2023-06-04T13:24:11;28.8;25.8
79187;SHT31;68762;51.980;5.646;2023-06-04T13:26:40;28.8;24.5
79187;SHT31;68762;51.980;5.646;2023-06-04T13:29:10;28.8;24.9
79187;SHT31;68762;51.980;5.646;2023-06-04T13:31:39;28.8;25.7
79187;SHT31;68762;51.980;5.646;2023-06-04T13:34:08;28.8;28.2
79187;SHT31;68762;51.980;5.646;2023-06-04T13:36:38;28.8;29.0
79187;SHT31;68762;51.980;5.646;2023-06-04T13:39:06;28.8;27.2
79187;SHT31;68762;51.980;5.646;2023-06-04T13:41:35;28.8;28.0
79187;SHT31;68762;51.980;5.646;2023-06-04T13:44:03;28.8;27.4
79187;SHT31;68762;51.980;5.646;2023-06-04T13:46:32;28.9;26.0
79187;SHT31;68762;51.980;5.646;2023-06-04T13:49:01;28.9;27.1
79187;SHT31;68762;51.980;5.646;2023-06-04T13:51:31;28.9;28.4
79187;SHT31;68762;51.980;5.646;2023-06-04T13:54:00;28.9;27.2
79187;SHT31;68762;51.980;5.646;2023-06-04T13:56:28;29.0;26.0
79187;SHT31;68762;51.980;5.646;2023-06-04T13:58:57;29.0;25.9
79187;SHT31;68762;51.980;5.646;2023-06-04T14:01:26;29.0;25.9
79187;SHT31;68762;51.980;5.646;2023-06-04T14:03:56;29.0;26.6
79187;SHT31;68762;51.980;5.646;2023-06-04T14:06:25;29.1;23.9
79187;SHT31;68762;51.980;5.646;2023-06-04T14:08:54;29.1;25.8
79187;SHT31;68762;51.980;5.646;2023-06-04T14:11:23;29.1;24.0
79187;SHT31;68762;51.980;5.646;2023-06-04T14:13:52;29.1;26.6
79187;SHT31;68762;51.980;5.646;2023-06-04T14:16:22;29.1;25.8
79187;SHT31;68762;51.980;5.646;2023-06-04T14:18:51;29.1;26.5
79187;SHT31;68762;51.980;5.646;2023-06-04T14:21:19;29.1;27.0
79187;SHT31;68762;51.980;5.646;2023-06-04T14:23:49;29.1;25.5
79187;SHT31;68762;51.980;5.646;2023-06-04T14:26:19;29.1;26.2
79187;SHT31;68762;51.980;5.646;2023-06-04T14:28:48;29.1;27.0
79187;SHT31;68762;51.980;5.646;2023-06-04T14:31:17;29.1;25.4
79187;SHT31;68762;51.980;5.646;2023-06-04T14:33:46;29.1;26.8
79187;SHT31;68762;51.980;5.646;2023-06-04T14:36:15;29.1;26.8
79187;SHT31;68762;51.980;5.646;2023-06-04T14:38:44;29.2;26.1
79187;SHT31;68762;51.980;5.646;2023-06-04T14:41:14;29.2;26.4
79187;SHT31;68762;51.980;5.646;2023-06-04T14:43:43;29.2;26.5
79187;SHT31;68762;51.980;5.646;2023-06-04T14:46:11;29.2;27.8
79187;SHT31;68762;51.980;5.646;2023-06-04T14:48:40;29.3;27.5
79187;SHT31;68762;51.980;5.646;2023-06-04T14:51:08;29.3;27.5
79187;SHT31;68762;51.980;5.646;2023-06-04T14:53:38;29.3;27.2
79187;SHT31;68762;51.980;5.646;2023-06-04T14:56:07;29.3;26.3
79187;SHT31;68762;51.980;5.646;2023-06-04T14:58:36;29.4;26.5
79187;SHT31;68762;51.980;5.646;2023-06-04T15:01:04;29.4;26.7
79187;SHT31;68762;51.980;5.646;2023-06-04T15:03:35;29.4;25.3
79187;SHT31;68762;51.980;5.646;2023-06-04T15:06:03;29.4;26.2
79187;SHT31;68762;51.980;5.646;2023-06-04T15:08:32;29.4;25.8
79187;SHT31;68762;51.980;5.646;2023-06-04T15:11:00;29.4;26.6
79187;SHT31;68762;51.980;5.646;2023-06-04T15:13:29;29.4;26.8
79187;SHT31;68762;51.980;5.646;2023-06-04T15:15:57;29.3;27.0
79187;SHT31;68762;51.980;5.646;2023-06-04T15:18:26;29.3;25.4
79187;SHT31;68762;51.980;5.646;2023-06-04T15:20:54;29.3;27.1
79187;SHT31;68762;51.980;5.646;2023-06-04T15:23:23;29.3;26.4
79187;SHT31;68762;51.980;5.646;2023-06-04T15:25:51;29.3;26.8
79187;SHT31;68762;51.980;5.646;2023-06-04T15:28:20;29.3;24.5
79187;SHT31;68762;51.980;5.646;2023-06-04T15:30:48;29.3;27.8
79187;SHT31;68762;51.980;5.646;2023-06-04T15:33:17;29.3;26.8
79187;SHT31;68762;51.980;5.646;2023-06-04T15:35:46;29.3;26.3
79187;SHT31;68762;51.980;5.646;2023-06-04T15:38:14;29.3;27.0
79187;SHT31;68762;51.980;5.646;2023-06-04T15:40:43;29.3;26.3
79187;SHT31;68762;51.980;5.646;2023-06-04T15:43:12;29.3;26.8
79187;SHT31;68762;51.980;5.646;2023-06-04T15:45:40;29.2;27.1
79187;SHT31;68762;51.980;5.646;2023-06-04T15:48:11;29.2;26.0
79187;SHT31;68762;51.980;5.646;2023-06-04T15:50:40;29.2;27.1
79187;SHT31;68762;51.980;5.646;2023-06-04T15:53:08;29.2;26.4
79187;SHT31;68762;51.980;5.646;2023-06-04T15:55:37;29.2;26.9
79187;SHT31;68762;51.980;5.646;2023-06-04T15:58:07;29.2;27.2
79187;SHT31;68762;51.980;5.646;2023-06-04T16:00:36;29.1;27.6
79187;SHT31;68762;51.980;5.646;2023-06-04T16:03:07;29.1;28.4
79187;SHT31;68762;51.980;5.646;2023-06-04T16:05:35;29.1;27.4
79187;SHT31;68762;51.980;5.646;2023-06-04T16:08:04;29.1;29.1
79187;SHT31;68762;51.980;5.646;2023-06-04T16:10:32;29.1;28.0
79187;SHT31;68762;51.980;5.646;2023-06-04T16:13:01;29.0;27.8
79187;SHT31;68762;51.980;5.646;2023-06-04T16:15:30;29.0;27.6
79187;SHT31;68762;51.980;5.646;2023-06-04T16:17:58;29.0;28.4